sensor_id;sensor_type;location;lat;lon;timestamp;pressure;altitude;pressure_sealevel;temperature
64916;BMP280;51427;-27.442;153.014;2022-08-01T00:01:53;102112.16;;;20.99
64916;BMP280;51427;-27.442;153.014;2022-08-01T00:04:21;102107.13;;;21.27
64916;BMP280;51427;-27.442;153.014;2022-08-01T00:06:48;102107.06;;;20.86
64916;BMP280;51427;-27.442;153.014;2022-08-01T00:09:15;102102.41;;;20.79
64916;BMP280;51427;-27.442;153.014;2022-08-01T00:11:43;102098.03;;;21.00
64916;BMP280;51427;-27.442;153.014;2022-08-01T00:14:10;102096.75;;;21.15
64916;BMP280;51427;-27.442;153.014;2022-08-01T00:16:37;102102.88;;;21.15
64916;BMP280;51427;-27.442;153.014;2022-08-01T00:19:04;102089.22;;;21.91
64916;BMP280;51427;-27.442;153.014;2022-08-01T00:21:35;102092.81;;;21.81
64916;BMP280;51427;-27.442;153.014;2022-08-01T00:24:03;102084.22;;;21.88
64916;BMP280;51427;-27.442;153.014;2022-08-01T00:26:30;102085.22;;;21.67
64916;BMP280;51427;-27.442;153.014;2022-08-01T00:28:57;102085.31;;;20.52
64916;BMP280;51427;-27.442;153.014;2022-08-01T00:31:27;102083.69;;;21.65
64916;BMP280;51427;-27.442;153.014;2022-08-01T00:33:55;102080.34;;;21.63
64916;BMP280;51427;-27.442;153.014;2022-08-01T00:36:22;102077.88;;;21.71
64916;BMP280;51427;-27.442;153.014;2022-08-01T00:38:49;102075.09;;;21.72
64916;BMP280;51427;-27.442;153.014;2022-08-01T00:41:16;102073.22;;;22.13
64916;BMP280;51427;-27.442;153.014;2022-08-01T00:43:44;102051.28;;;21.22
64916;BMP280;51427;-27.442;153.014;2022-08-01T00:46:11;102060.75;;;21.25
64916;BMP280;51427;-27.442;153.014;2022-08-01T00:48:38;102059.75;;;21.86
64916;BMP280;51427;-27.442;153.014;2022-08-01T00:51:05;102071.16;;;20.75
64916;BMP280;51427;-27.442;153.014;2022-08-01T00:53:34;102071.78;;;20.67
64916;BMP280;51427;-27.442;153.014;2022-08-01T00:56:02;102061.78;;;21.13
64916;BMP280;51427;-27.442;153.014;2022-08-01T00:58:29;102068.56;;;21.96
64916;BMP280;51427;-27.442;153.014;2022-08-01T01:00:59;102076.31;;;20.65
64916;BMP280;51427;-27.442;153.014;2022-08-01T01:03:27;102067.66;;;21.57
64916;BMP280;51427;-27.442;153.014;2022-08-01T01:06:31;102063.84;;;21.09
64916;BMP280;51427;-27.442;153.014;2022-08-01T01:14:29;102048.66;;;21.92
64916;BMP280;51427;-27.442;153.014;2022-08-01T01:16:59;102049.88;;;20.56
64916;BMP280;51427;-27.442;153.014;2022-08-01T01:19:31;102047.06;;;20.37
64916;BMP280;51427;-27.442;153.014;2022-08-01T01:30:55;102002.25;;;20.99
64916;BMP280;51427;-27.442;153.014;2022-08-01T01:33:26;102000.31;;;20.81
64916;BMP280;51427;-27.442;153.014;2022-08-01T01:36:08;102001.56;;;21.97
64916;BMP280;51427;-27.442;153.014;2022-08-01T01:38:40;102003.28;;;21.69
64916;BMP280;51427;-27.442;153.014;2022-08-01T01:41:09;102004.91;;;21.40
64916;BMP280;51427;-27.442;153.014;2022-08-01T01:43:38;101985.25;;;21.74
64916;BMP280;51427;-27.442;153.014;2022-08-01T01:46:08;101978.53;;;21.99
64916;BMP280;51427;-27.442;153.014;2022-08-01T01:48:36;101973.34;;;21.29
64916;BMP280;51427;-27.442;153.014;2022-08-01T01:51:05;101959.00;;;22.67
64916;BMP280;51427;-27.442;153.014;2022-08-01T01:53:34;101979.44;;;21.79
64916;BMP280;51427;-27.442;153.014;2022-08-01T01:56:03;101974.28;;;21.28
64916;BMP280;51427;-27.442;153.014;2022-08-01T01:58:33;101963.44;;;22.20
64916;BMP280;51427;-27.442;153.014;2022-08-01T02:01:01;101965.63;;;21.76
64916;BMP280;51427;-27.442;153.014;2022-08-01T02:03:30;101961.13;;;21.08
64916;BMP280;51427;-27.442;153.014;2022-08-01T02:05:59;101950.44;;;21.98
64916;BMP280;51427;-27.442;153.014;2022-08-01T02:08:29;101941.94;;;21.85
64916;BMP280;51427;-27.442;153.014;2022-08-01T02:10:59;101938.97;;;22.84
64916;BMP280;51427;-27.442;153.014;2022-08-01T02:13:58;101942.34;;;22.58
64916;BMP280;51427;-27.442;153.014;2022-08-01T02:16:28;101939.16;;;21.87
64916;BMP280;51427;-27.442;153.014;2022-08-01T02:18:56;101927.59;;;22.46
64916;BMP280;51427;-27.442;153.014;2022-08-01T02:21:28;101921.69;;;23.08
64916;BMP280;51427;-27.442;153.014;2022-08-01T02:24:07;101934.53;;;22.66
64916;BMP280;51427;-27.442;153.014;2022-08-01T02:26:39;101913.06;;;22.87
64916;BMP280;51427;-27.442;153.014;2022-08-01T02:29:13;101911.34;;;21.83
64916;BMP280;51427;-27.442;153.014;2022-08-01T02:31:43;101903.50;;;21.33
64916;BMP280;51427;-27.442;153.014;2022-08-01T02:34:16;101898.69;;;21.68
64916;BMP280;51427;-27.442;153.014;2022-08-01T02:36:45;101895.00;;;21.98
64916;BMP280;51427;-27.442;153.014;2022-08-01T02:39:16;101884.19;;;22.58
64916;BMP280;51427;-27.442;153.014;2022-08-01T02:41:48;101869.63;;;23.71
64916;BMP280;51427;-27.442;153.014;2022-08-01T02:44:30;101869.47;;;23.90
64916;BMP280;51427;-27.442;153.014;2022-08-01T02:47:00;101868.28;;;24.02
64916;BMP280;51427;-27.442;153.014;2022-08-01T02:49:36;101880.00;;;22.65
64916;BMP280;51427;-27.442;153.014;2022-08-01T02:52:07;101873.03;;;22.17
64916;BMP280;51427;-27.442;153.014;2022-08-01T02:54:36;101858.38;;;23.87
64916;BMP280;51427;-27.442;153.014;2022-08-01T02:57:06;101865.78;;;23.66
64916;BMP280;51427;-27.442;153.014;2022-08-01T02:59:37;101852.38;;;23.58
64916;BMP280;51427;-27.442;153.014;2022-08-01T03:02:05;101841.13;;;24.35
64916;BMP280;51427;-27.442;153.014;2022-08-01T03:04:35;101835.38;;;24.39
64916;BMP280;51427;-27.442;153.014;2022-08-01T03:07:05;101848.94;;;25.04
64916;BMP280;51427;-27.442;153.014;2022-08-01T03:09:37;101842.38;;;24.65
64916;BMP280;51427;-27.442;153.014;2022-08-01T03:12:17;101838.19;;;24.03
64916;BMP280;51427;-27.442;153.014;2022-08-01T03:14:47;101829.75;;;25.10
64916;BMP280;51427;-27.442;153.014;2022-08-01T03:17:16;101835.09;;;24.08
64916;BMP280;51427;-27.442;153.014;2022-08-01T03:19:46;101826.66;;;24.47
64916;BMP280;51427;-27.442;153.014;2022-08-01T03:22:14;101817.19;;;24.27
64916;BMP280;51427;-27.442;153.014;2022-08-01T03:24:45;101832.56;;;24.23
64916;BMP280;51427;-27.442;153.014;2022-08-01T03:27:15;101836.38;;;24.63
64916;BMP280;51427;-27.442;153.014;2022-08-01T03:29:43;101835.09;;;24.67
64916;BMP280;51427;-27.442;153.014;2022-08-01T03:32:12;101820.00;;;24.08
64916;BMP280;51427;-27.442;153.014;2022-08-01T03:34:41;101806.88;;;25.17
64916;BMP280;51427;-27.442;153.014;2022-08-01T03:37:17;101806.66;;;25.44
64916;BMP280;51427;-27.442;153.014;2022-08-01T03:39:54;101820.44;;;24.81
64916;BMP280;51427;-27.442;153.014;2022-08-01T03:42:28;101803.56;;;25.15
64916;BMP280;51427;-27.442;153.014;2022-08-01T03:45:07;101791.72;;;24.51
64916;BMP280;51427;-27.442;153.014;2022-08-01T03:47:42;101787.06;;;24.70
64916;BMP280;51427;-27.442;153.014;2022-08-01T03:50:11;101781.09;;;25.43
64916;BMP280;51427;-27.442;153.014;2022-08-01T03:52:43;101794.72;;;23.96
64916;BMP280;51427;-27.442;153.014;2022-08-01T03:55:11;101782.78;;;24.77
64916;BMP280;51427;-27.442;153.014;2022-08-01T03:57:40;101797.84;;;25.43
64916;BMP280;51427;-27.442;153.014;2022-08-01T04:00:08;101803.63;;;24.72
64916;BMP280;51427;-27.442;153.014;2022-08-01T04:02:36;101798.63;;;25.85
64916;BMP280;51427;-27.442;153.014;2022-08-01T04:05:05;101801.63;;;24.41
64916;BMP280;51427;-27.442;153.014;2022-08-01T04:07:33;101784.84;;;24.91
64916;BMP280;51427;-27.442;153.014;2022-08-01T04:10:06;101784.25;;;24.47
64916;BMP280;51427;-27.442;153.014;2022-08-01T04:12:34;101781.84;;;24.86
64916;BMP280;51427;-27.442;153.014;2022-08-01T04:15:05;101787.56;;;23.71
64916;BMP280;51427;-27.442;153.014;2022-08-01T04:17:32;101789.13;;;23.99
64916;BMP280;51427;-27.442;153.014;2022-08-01T04:20:00;101772.91;;;23.77
64916;BMP280;51427;-27.442;153.014;2022-08-01T04:22:27;101773.06;;;23.49
64916;BMP280;51427;-27.442;153.014;2022-08-01T04:24:57;101770.75;;;23.80
64916;BMP280;51427;-27.442;153.014;2022-08-01T04:27:32;101773.75;;;23.51
64916;BMP280;51427;-27.442;153.014;2022-08-01T04:30:01;101777.31;;;24.46
64916;BMP280;51427;-27.442;153.014;2022-08-01T04:32:33;101766.28;;;24.58
64916;BMP280;51427;-27.442;153.014;2022-08-01T04:35:04;101772.09;;;24.95
64916;BMP280;51427;-27.442;153.014;2022-08-01T04:37:33;101776.41;;;24.62
64916;BMP280;51427;-27.442;153.014;2022-08-01T04:40:07;101771.91;;;23.95
64916;BMP280;51427;-27.442;153.014;2022-08-01T04:42:36;101777.50;;;24.52
64916;BMP280;51427;-27.442;153.014;2022-08-01T04:45:03;101774.13;;;24.25
64916;BMP280;51427;-27.442;153.014;2022-08-01T04:47:31;101779.13;;;23.15
64916;BMP280;51427;-27.442;153.014;2022-08-01T04:49:59;101777.72;;;23.20
64916;BMP280;51427;-27.442;153.014;2022-08-01T04:52:36;101771.63;;;23.10
64916;BMP280;51427;-27.442;153.014;2022-08-01T04:55:05;101763.63;;;24.15
64916;BMP280;51427;-27.442;153.014;2022-08-01T04:57:36;101775.81;;;23.91
64916;BMP280;51427;-27.442;153.014;2022-08-01T05:00:04;101759.19;;;25.33
64916;BMP280;51427;-27.442;153.014;2022-08-01T05:02:32;101761.50;;;25.36
64916;BMP280;51427;-27.442;153.014;2022-08-01T05:05:00;101766.84;;;23.84
64916;BMP280;51427;-27.442;153.014;2022-08-01T05:07:27;101761.56;;;24.44
64916;BMP280;51427;-27.442;153.014;2022-08-01T05:09:54;101773.41;;;24.15
64916;BMP280;51427;-27.442;153.014;2022-08-01T05:12:21;101769.38;;;24.11
64916;BMP280;51427;-27.442;153.014;2022-08-01T05:14:48;101764.78;;;23.96
64916;BMP280;51427;-27.442;153.014;2022-08-01T05:17:16;101772.63;;;24.05
64916;BMP280;51427;-27.442;153.014;2022-08-01T05:19:43;101764.22;;;25.03
64916;BMP280;51427;-27.442;153.014;2022-08-01T05:22:11;101763.09;;;23.95
64916;BMP280;51427;-27.442;153.014;2022-08-01T05:24:39;101761.78;;;24.16
64916;BMP280;51427;-27.442;153.014;2022-08-01T05:27:07;101758.44;;;24.49
64916;BMP280;51427;-27.442;153.014;2022-08-01T05:29:35;101756.66;;;24.32
64916;BMP280;51427;-27.442;153.014;2022-08-01T05:32:03;101750.53;;;24.14
64916;BMP280;51427;-27.442;153.014;2022-08-01T05:34:30;101742.69;;;24.30
64916;BMP280;51427;-27.442;153.014;2022-08-01T05:37:00;101743.06;;;23.92
64916;BMP280;51427;-27.442;153.014;2022-08-01T05:39:27;101741.56;;;24.57
64916;BMP280;51427;-27.442;153.014;2022-08-01T05:41:55;101732.19;;;24.71
64916;BMP280;51427;-27.442;153.014;2022-08-01T05:44:22;101732.25;;;25.12
64916;BMP280;51427;-27.442;153.014;2022-08-01T05:46:49;101736.31;;;24.15
64916;BMP280;51427;-27.442;153.014;2022-08-01T05:49:17;101734.25;;;24.52
64916;BMP280;51427;-27.442;153.014;2022-08-01T05:51:44;101735.03;;;24.27
64916;BMP280;51427;-27.442;153.014;2022-08-01T05:54:11;101739.75;;;23.29
64916;BMP280;51427;-27.442;153.014;2022-08-01T05:56:39;101734.91;;;23.24
64916;BMP280;51427;-27.442;153.014;2022-08-01T05:59:06;101726.00;;;23.43
64916;BMP280;51427;-27.442;153.014;2022-08-01T06:01:33;101729.16;;;22.75
64916;BMP280;51427;-27.442;153.014;2022-08-01T06:04:00;101725.19;;;23.42
64916;BMP280;51427;-27.442;153.014;2022-08-01T06:06:28;101730.72;;;24.01
64916;BMP280;51427;-27.442;153.014;2022-08-01T06:08:55;101733.41;;;23.66
64916;BMP280;51427;-27.442;153.014;2022-08-01T06:11:22;101741.56;;;23.28
64916;BMP280;51427;-27.442;153.014;2022-08-01T06:13:49;101747.59;;;23.21
64916;BMP280;51427;-27.442;153.014;2022-08-01T06:16:17;101757.50;;;23.19
64916;BMP280;51427;-27.442;153.014;2022-08-01T06:18:44;101763.38;;;22.86
64916;BMP280;51427;-27.442;153.014;2022-08-01T06:21:11;101767.78;;;22.59
64916;BMP280;51427;-27.442;153.014;2022-08-01T06:23:38;101766.31;;;23.10
64916;BMP280;51427;-27.442;153.014;2022-08-01T06:26:08;101762.44;;;23.05
64916;BMP280;51427;-27.442;153.014;2022-08-01T06:28:36;101763.81;;;22.27
64916;BMP280;51427;-27.442;153.014;2022-08-01T06:31:03;101753.38;;;22.16
64916;BMP280;51427;-27.442;153.014;2022-08-01T06:33:30;101742.84;;;22.62
64916;BMP280;51427;-27.442;153.014;2022-08-01T06:35:57;101747.00;;;21.90
64916;BMP280;51427;-27.442;153.014;2022-08-01T06:38:25;101745.91;;;23.03
64916;BMP280;51427;-27.442;153.014;2022-08-01T06:40:52;101727.97;;;23.23
64916;BMP280;51427;-27.442;153.014;2022-08-01T06:43:19;101726.72;;;23.79
64916;BMP280;51427;-27.442;153.014;2022-08-01T06:45:47;101735.78;;;23.60
64916;BMP280;51427;-27.442;153.014;2022-08-01T06:48:15;101743.41;;;23.28
64916;BMP280;51427;-27.442;153.014;2022-08-01T06:50:42;101740.84;;;23.09
64916;BMP280;51427;-27.442;153.014;2022-08-01T06:53:09;101747.53;;;23.74
64916;BMP280;51427;-27.442;153.014;2022-08-01T06:55:39;101742.84;;;23.68
64916;BMP280;51427;-27.442;153.014;2022-08-01T06:58:07;101753.41;;;22.62
64916;BMP280;51427;-27.442;153.014;2022-08-01T07:00:34;101751.97;;;22.76
64916;BMP280;51427;-27.442;153.014;2022-08-01T07:03:01;101739.81;;;23.63
64916;BMP280;51427;-27.442;153.014;2022-08-01T07:05:29;101739.00;;;23.36
64916;BMP280;51427;-27.442;153.014;2022-08-01T07:07:57;101749.53;;;22.92
64916;BMP280;51427;-27.442;153.014;2022-08-01T07:10:24;101743.41;;;23.28
64916;BMP280;51427;-27.442;153.014;2022-08-01T07:12:51;101750.91;;;22.69
64916;BMP280;51427;-27.442;153.014;2022-08-01T07:15:19;101757.25;;;22.12
64916;BMP280;51427;-27.442;153.014;2022-08-01T07:17:48;101756.44;;;22.30
64916;BMP280;51427;-27.442;153.014;2022-08-01T07:20:15;101755.47;;;21.94
64916;BMP280;51427;-27.442;153.014;2022-08-01T07:22:42;101764.31;;;21.36
64916;BMP280;51427;-27.442;153.014;2022-08-01T07:25:10;101765.09;;;21.27
64916;BMP280;51427;-27.442;153.014;2022-08-01T07:27:37;101757.34;;;21.35
64916;BMP280;51427;-27.442;153.014;2022-08-01T07:30:05;101767.53;;;21.10
64916;BMP280;51427;-27.442;153.014;2022-08-01T07:32:33;101760.47;;;21.01
64916;BMP280;51427;-27.442;153.014;2022-08-01T07:35:02;101760.81;;;20.87
64916;BMP280;51427;-27.442;153.014;2022-08-01T07:37:29;101758.50;;;21.03
64916;BMP280;51427;-27.442;153.014;2022-08-01T07:39:57;101775.44;;;20.71
64916;BMP280;51427;-27.442;153.014;2022-08-01T07:42:24;101774.81;;;20.88
64916;BMP280;51427;-27.442;153.014;2022-08-01T07:44:52;101775.78;;;21.17
64916;BMP280;51427;-27.442;153.014;2022-08-01T07:47:24;101770.19;;;21.59
64916;BMP280;51427;-27.442;153.014;2022-08-01T07:49:52;101763.97;;;21.30
64916;BMP280;51427;-27.442;153.014;2022-08-01T07:52:19;101783.44;;;21.29
64916;BMP280;51427;-27.442;153.014;2022-08-01T07:54:46;101775.28;;;21.02
64916;BMP280;51427;-27.442;153.014;2022-08-01T07:57:13;101784.59;;;20.77
64916;BMP280;51427;-27.442;153.014;2022-08-01T07:59:41;101780.13;;;20.97
64916;BMP280;51427;-27.442;153.014;2022-08-01T08:02:08;101786.16;;;20.79
64916;BMP280;51427;-27.442;153.014;2022-08-01T08:04:35;101778.81;;;20.82
64916;BMP280;51427;-27.442;153.014;2022-08-01T08:07:03;101775.59;;;21.48
64916;BMP280;51427;-27.442;153.014;2022-08-01T08:09:30;101775.63;;;22.04
64916;BMP280;51427;-27.442;153.014;2022-08-01T08:11:57;101781.41;;;21.61
64916;BMP280;51427;-27.442;153.014;2022-08-01T08:14:25;101796.25;;;21.43
64916;BMP280;51427;-27.442;153.014;2022-08-01T08:16:52;101800.50;;;20.86
64916;BMP280;51427;-27.442;153.014;2022-08-01T08:19:19;101802.50;;;21.03
64916;BMP280;51427;-27.442;153.014;2022-08-01T08:21:47;101801.03;;;21.86
64916;BMP280;51427;-27.442;153.014;2022-08-01T08:24:14;101801.06;;;22.33
64916;BMP280;51427;-27.442;153.014;2022-08-01T08:26:49;101795.84;;;23.06
64916;BMP280;51427;-27.442;153.014;2022-08-01T08:29:17;101805.25;;;22.81
64916;BMP280;51427;-27.442;153.014;2022-08-01T08:34:16;101800.81;;;23.45
64916;BMP280;51427;-27.442;153.014;2022-08-01T08:36:44;101799.00;;;23.62
64916;BMP280;51427;-27.442;153.014;2022-08-01T08:39:11;101813.06;;;23.19
64916;BMP280;51427;-27.442;153.014;2022-08-01T08:41:38;101810.41;;;22.73
64916;BMP280;51427;-27.442;153.014;2022-08-01T08:44:08;101814.22;;;22.52
64916;BMP280;51427;-27.442;153.014;2022-08-01T08:46:42;101818.41;;;22.55
64916;BMP280;51427;-27.442;153.014;2022-08-01T08:49:12;101818.94;;;23.13
64916;BMP280;51427;-27.442;153.014;2022-08-01T08:51:42;101819.81;;;23.04
64916;BMP280;51427;-27.442;153.014;2022-08-01T08:54:11;101830.53;;;23.03
64916;BMP280;51427;-27.442;153.014;2022-08-01T08:56:42;101832.44;;;22.08
64916;BMP280;51427;-27.442;153.014;2022-08-01T08:59:11;101843.78;;;20.93
64916;BMP280;51427;-27.442;153.014;2022-08-01T09:01:42;101836.75;;;20.73
64916;BMP280;51427;-27.442;153.014;2022-08-01T09:04:11;101833.00;;;21.35
64916;BMP280;51427;-27.442;153.014;2022-08-01T09:06:39;101836.66;;;22.20
64916;BMP280;51427;-27.442;153.014;2022-08-01T09:09:07;101840.00;;;21.45
64916;BMP280;51427;-27.442;153.014;2022-08-01T09:11:36;101835.97;;;20.82
64916;BMP280;51427;-27.442;153.014;2022-08-01T09:16:39;101830.94;;;22.24
64916;BMP280;51427;-27.442;153.014;2022-08-01T09:19:14;101834.63;;;22.69
64916;BMP280;51427;-27.442;153.014;2022-08-01T09:22:02;101832.88;;;23.42
64916;BMP280;51427;-27.442;153.014;2022-08-01T09:24:31;101839.59;;;23.00
64916;BMP280;51427;-27.442;153.014;2022-08-01T09:26:59;101844.28;;;22.23
64916;BMP280;51427;-27.442;153.014;2022-08-01T09:29:29;101836.91;;;22.55
64916;BMP280;51427;-27.442;153.014;2022-08-01T09:31:58;101847.41;;;22.83
64916;BMP280;51427;-27.442;153.014;2022-08-01T09:34:30;101836.69;;;22.94
64916;BMP280;51427;-27.442;153.014;2022-08-01T09:36:59;101839.28;;;23.13
64916;BMP280;51427;-27.442;153.014;2022-08-01T09:39:29;101843.72;;;23.12
64916;BMP280;51427;-27.442;153.014;2022-08-01T09:41:59;101845.47;;;22.85
64916;BMP280;51427;-27.442;153.014;2022-08-01T09:44:43;101858.88;;;22.46
64916;BMP280;51427;-27.442;153.014;2022-08-01T09:47:12;101856.69;;;22.23
64916;BMP280;51427;-27.442;153.014;2022-08-01T09:49:41;101848.84;;;22.59
64916;BMP280;51427;-27.442;153.014;2022-08-01T09:52:18;101854.63;;;23.00
64916;BMP280;51427;-27.442;153.014;2022-08-01T09:54:55;101861.31;;;22.75
64916;BMP280;51427;-27.442;153.014;2022-08-01T09:57:24;101858.56;;;22.02
64916;BMP280;51427;-27.442;153.014;2022-08-01T09:59:54;101857.91;;;22.47
64916;BMP280;51427;-27.442;153.014;2022-08-01T10:04:57;101864.41;;;22.62
64916;BMP280;51427;-27.442;153.014;2022-08-01T10:07:25;101860.19;;;22.97
64916;BMP280;51427;-27.442;153.014;2022-08-01T10:09:52;101863.53;;;22.99
64916;BMP280;51427;-27.442;153.014;2022-08-01T10:12:21;101863.44;;;22.72
64916;BMP280;51427;-27.442;153.014;2022-08-01T10:14:52;101873.84;;;21.89
64916;BMP280;51427;-27.442;153.014;2022-08-01T10:17:24;101878.63;;;20.96
64916;BMP280;51427;-27.442;153.014;2022-08-01T10:19:53;101877.88;;;21.44
64916;BMP280;51427;-27.442;153.014;2022-08-01T10:22:24;101866.34;;;22.03
64916;BMP280;51427;-27.442;153.014;2022-08-01T10:24:56;101868.63;;;22.26
64916;BMP280;51427;-27.442;153.014;2022-08-01T10:27:25;101868.91;;;22.23
64916;BMP280;51427;-27.442;153.014;2022-08-01T10:29:57;101871.56;;;22.42
64916;BMP280;51427;-27.442;153.014;2022-08-01T10:32:29;101868.84;;;22.70
64916;BMP280;51427;-27.442;153.014;2022-08-01T10:34:57;101870.13;;;22.67
64916;BMP280;51427;-27.442;153.014;2022-08-01T10:37:25;101879.28;;;21.87
64916;BMP280;51427;-27.442;153.014;2022-08-01T10:39:53;101879.28;;;21.87
64916;BMP280;51427;-27.442;153.014;2022-08-01T10:42:21;101855.56;;;22.44
64916;BMP280;51427;-27.442;153.014;2022-08-01T10:44:49;101861.16;;;21.55
64916;BMP280;51427;-27.442;153.014;2022-08-01T10:47:23;101862.50;;;21.49
64916;BMP280;51427;-27.442;153.014;2022-08-01T10:49:59;101859.03;;;22.25
64916;BMP280;51427;-27.442;153.014;2022-08-01T10:52:29;101853.00;;;22.70
64916;BMP280;51427;-27.442;153.014;2022-08-01T10:55:14;101845.53;;;22.38
64916;BMP280;51427;-27.442;153.014;2022-08-01T10:57:46;101844.84;;;22.55
64916;BMP280;51427;-27.442;153.014;2022-08-01T11:00:20;101844.00;;;22.54
64916;BMP280;51427;-27.442;153.014;2022-08-01T11:03:03;101851.38;;;22.41
64916;BMP280;51427;-27.442;153.014;2022-08-01T11:05:34;101852.88;;;22.16
64916;BMP280;51427;-27.442;153.014;2022-08-01T11:08:07;101850.91;;;21.71
64916;BMP280;51427;-27.442;153.014;2022-08-01T11:10:41;101852.66;;;21.61
64916;BMP280;51427;-27.442;153.014;2022-08-01T11:13:11;101854.28;;;22.20
64916;BMP280;51427;-27.442;153.014;2022-08-01T11:15:40;101852.22;;;22.32
64916;BMP280;51427;-27.442;153.014;2022-08-01T11:21:01;101841.94;;;22.29
64916;BMP280;51427;-27.442;153.014;2022-08-01T11:23:29;101844.44;;;22.31
64916;BMP280;51427;-27.442;153.014;2022-08-01T11:28:29;101844.72;;;22.28
64916;BMP280;51427;-27.442;153.014;2022-08-01T11:41:34;101858.88;;;22.55
64916;BMP280;51427;-27.442;153.014;2022-08-01T11:44:04;101859.59;;;22.29
64916;BMP280;51427;-27.442;153.014;2022-08-01T11:46:54;101869.22;;;21.03
64916;BMP280;51427;-27.442;153.014;2022-08-01T11:54:51;101858.06;;;21.20
64916;BMP280;51427;-27.442;153.014;2022-08-01T11:57:21;101862.13;;;21.54
64916;BMP280;51427;-27.442;153.014;2022-08-01T12:02:33;101878.94;;;20.42
64916;BMP280;51427;-27.442;153.014;2022-08-01T12:05:09;101877.31;;;20.82
64916;BMP280;51427;-27.442;153.014;2022-08-01T12:07:57;101874.41;;;21.14
64916;BMP280;51427;-27.442;153.014;2022-08-01T12:10:27;101871.09;;;21.90
64916;BMP280;51427;-27.442;153.014;2022-08-01T12:13:05;101861.59;;;21.78
64916;BMP280;51427;-27.442;153.014;2022-08-01T12:15:37;101868.94;;;21.36
64916;BMP280;51427;-27.442;153.014;2022-08-01T12:18:05;101868.28;;;21.82
64916;BMP280;51427;-27.442;153.014;2022-08-01T12:20:36;101852.31;;;21.93
64916;BMP280;51427;-27.442;153.014;2022-08-01T12:23:06;101854.47;;;21.60
64916;BMP280;51427;-27.442;153.014;2022-08-01T12:25:34;101853.03;;;22.14
64916;BMP280;51427;-27.442;153.014;2022-08-01T12:28:10;101850.56;;;22.31
64916;BMP280;51427;-27.442;153.014;2022-08-01T12:30:39;101852.22;;;20.26
64916;BMP280;51427;-27.442;153.014;2022-08-01T12:33:08;101851.50;;;19.82
64916;BMP280;51427;-27.442;153.014;2022-08-01T12:35:38;101843.94;;;21.21
64916;BMP280;51427;-27.442;153.014;2022-08-01T12:38:06;101837.72;;;21.89
64916;BMP280;51427;-27.442;153.014;2022-08-01T12:40:35;101837.94;;;21.49
64916;BMP280;51427;-27.442;153.014;2022-08-01T12:43:05;101852.84;;;20.80
64916;BMP280;51427;-27.442;153.014;2022-08-01T12:45:37;101842.06;;;21.03
64916;BMP280;51427;-27.442;153.014;2022-08-01T12:48:15;101843.53;;;21.65
64916;BMP280;51427;-27.442;153.014;2022-08-01T12:50:47;101836.56;;;21.64
64916;BMP280;51427;-27.442;153.014;2022-08-01T12:53:16;101835.66;;;22.02
64916;BMP280;51427;-27.442;153.014;2022-08-01T12:55:51;101832.03;;;22.03
64916;BMP280;51427;-27.442;153.014;2022-08-01T12:58:19;101830.03;;;21.19
64916;BMP280;51427;-27.442;153.014;2022-08-01T13:00:49;101836.53;;;21.45
64916;BMP280;51427;-27.442;153.014;2022-08-01T13:03:20;101820.19;;;21.60
64916;BMP280;51427;-27.442;153.014;2022-08-01T13:08:19;101815.72;;;21.61
64916;BMP280;51427;-27.442;153.014;2022-08-01T13:10:47;101813.81;;;21.63
64916;BMP280;51427;-27.442;153.014;2022-08-01T13:13:16;101810.78;;;22.23
64916;BMP280;51427;-27.442;153.014;2022-08-01T13:15:44;101818.84;;;21.36
64916;BMP280;51427;-27.442;153.014;2022-08-01T13:18:29;101816.00;;;19.66
64916;BMP280;51427;-27.442;153.014;2022-08-01T13:21:17;101825.53;;;20.20
64916;BMP280;51427;-27.442;153.014;2022-08-01T13:26:46;101818.16;;;20.75
64916;BMP280;51427;-27.442;153.014;2022-08-01T13:29:22;101814.47;;;21.16
64916;BMP280;51427;-27.442;153.014;2022-08-01T13:31:50;101823.38;;;20.45
64916;BMP280;51427;-27.442;153.014;2022-08-01T13:34:17;101816.38;;;20.75
64916;BMP280;51427;-27.442;153.014;2022-08-01T13:36:44;101804.78;;;21.17
64916;BMP280;51427;-27.442;153.014;2022-08-01T13:39:12;101807.16;;;20.90
64916;BMP280;51427;-27.442;153.014;2022-08-01T13:41:57;101803.47;;;21.02
64916;BMP280;51427;-27.442;153.014;2022-08-01T13:44:24;101813.34;;;21.48
64916;BMP280;51427;-27.442;153.014;2022-08-01T13:46:51;101808.13;;;21.28
64916;BMP280;51427;-27.442;153.014;2022-08-01T13:49:18;101797.41;;;21.20
64916;BMP280;51427;-27.442;153.014;2022-08-01T13:51:46;101802.53;;;21.12
64916;BMP280;51427;-27.442;153.014;2022-08-01T13:54:16;101793.91;;;21.49
64916;BMP280;51427;-27.442;153.014;2022-08-01T13:56:44;101797.09;;;20.34
64916;BMP280;51427;-27.442;153.014;2022-08-01T13:59:11;101783.66;;;21.07
64916;BMP280;51427;-27.442;153.014;2022-08-01T14:01:39;101787.69;;;20.61
64916;BMP280;51427;-27.442;153.014;2022-08-01T14:04:06;101778.66;;;21.04
64916;BMP280;51427;-27.442;153.014;2022-08-01T14:06:34;101794.19;;;20.57
64916;BMP280;51427;-27.442;153.014;2022-08-01T14:09:02;101782.34;;;20.92
64916;BMP280;51427;-27.442;153.014;2022-08-01T14:11:30;101781.41;;;20.53
64916;BMP280;51427;-27.442;153.014;2022-08-01T14:13:57;101779.34;;;19.53
64916;BMP280;51427;-27.442;153.014;2022-08-01T14:16:24;101789.81;;;19.33
64916;BMP280;51427;-27.442;153.014;2022-08-01T14:18:52;101777.13;;;20.11
64916;BMP280;51427;-27.442;153.014;2022-08-01T14:21:19;101770.16;;;20.71
64916;BMP280;51427;-27.442;153.014;2022-08-01T14:23:46;101778.22;;;20.49
64916;BMP280;51427;-27.442;153.014;2022-08-01T14:26:14;101782.13;;;20.34
64916;BMP280;51427;-27.442;153.014;2022-08-01T14:28:41;101776.56;;;20.58